Time;durP1;ratioP1;P1;durP2;ratioP2;P2;SDS_P1;SDS_P2;PMS_P1;PMS_P2;Temp;Humidity;BMP_temperature;BMP_pressure;BME280_temperature;BME280_humidity;BME280_pressure;Samples;Min_cycle;Max_cycle;Signal;HPM_P1;HPM_P2
2021/07/10 00:00:33;;;;;;;3.30;2.50;;;21.90;96.20;;;;;;5074766;28;20020;-84
2021/07/10 00:03:00;;;;;;;3.55;2.80;;;21.90;96.20;;;;;;5074388;28;20103;-82
2021/07/10 00:05:25;;;;;;;3.95;2.42;;;21.90;96.20;;;;;;5074268;28;20028;-85
2021/07/10 00:07:52;;;;;;;4.07;2.22;;;21.90;96.20;;;;;;5074501;28;20036;-81
2021/07/10 00:10:19;;;;;;;2.88;2.00;;;21.90;96.30;;;;;;5074097;28;20013;-80
2021/07/10 00:12:45;;;;;;;3.08;2.10;;;21.90;96.20;;;;;;5072616;28;20052;-84
2021/07/10 00:15:13;;;;;;;3.10;2.42;;;21.90;96.20;;;;;;5074392;28;20063;-83
2021/07/10 00:17:39;;;;;;;4.50;2.35;;;21.90;96.20;;;;;;5074045;28;20028;-86
2021/07/10 00:20:07;;;;;;;3.70;2.38;;;21.90;96.20;;;;;;5074474;28;20112;-81
2021/07/10 00:22:32;;;;;;;4.03;2.40;;;21.90;96.20;;;;;;5074520;28;20020;-89
2021/07/10 00:24:58;;;;;;;2.88;2.22;;;21.80;96.20;;;;;;5073742;28;20048;-85
2021/07/10 00:27:24;;;;;;;3.97;2.42;;;21.90;96.20;;;;;;5074177;28;20048;-84
2021/07/10 00:29:50;;;;;;;2.80;2.25;;;21.80;96.20;;;;;;5074007;28;20108;-77
2021/07/10 00:32:15;;;;;;;4.35;2.30;;;21.80;96.20;;;;;;5073867;28;20040;-82
2021/07/10 00:34:41;;;;;;;3.67;2.53;;;21.90;96.20;;;;;;5074049;28;20104;-77
2021/07/10 00:37:06;;;;;;;4.47;2.10;;;21.80;96.20;;;;;;5072606;28;20028;-82
2021/07/10 00:39:32;;;;;;;3.63;2.42;;;21.80;96.20;;;;;;5074067;28;20027;-81
2021/07/10 00:41:58;;;;;;;4.28;2.40;;;21.80;96.20;;;;;;5073750;28;20174;-82
2021/07/10 00:44:23;;;;;;;2.90;2.40;;;21.80;96.50;;;;;;5073766;28;20112;-81
2021/07/10 00:46:49;;;;;;;2.95;2.10;;;21.80;96.30;;;;;;5073356;28;20492;-83
2021/07/10 00:49:15;;;;;;;2.90;2.25;;;21.80;96.40;;;;;;5072465;28;20035;-82
2021/07/10 00:51:40;;;;;;;3.60;2.55;;;21.80;96.50;;;;;;5072766;28;20111;-84
2021/07/10 00:54:06;;;;;;;3.28;2.55;;;21.80;96.60;;;;;;5073053;28;20108;-81
2021/07/10 00:56:32;;;;;;;4.72;2.70;;;21.80;96.70;;;;;;5073625;28;20036;-82
2021/07/10 00:58:59;;;;;;;3.45;2.40;;;21.80;96.80;;;;;;5073273;28;20032;-83
2021/07/10 01:01:25;;;;;;;3.13;2.33;;;21.80;96.90;;;;;;5074461;28;20452;-84
2021/07/10 01:03:51;;;;;;;3.15;2.42;;;21.80;97.00;;;;;;5074264;28;20032;-85
2021/07/10 01:06:17;;;;;;;3.72;3.03;;;21.80;97.10;;;;;;5072905;28;20073;-83
2021/07/10 01:08:45;;;;;;;3.78;2.30;;;21.80;97.10;;;;;;5073289;28;20051;-75
2021/07/10 01:11:11;;;;;;;4.07;2.50;;;21.80;97.20;;;;;;5071987;28;20090;-83
2021/07/10 01:13:37;;;;;;;4.30;2.92;;;21.80;97.20;;;;;;5073157;28;20025;-82
2021/07/10 01:16:04;;;;;;;3.08;2.20;;;21.80;97.10;;;;;;5073539;28;20090;-77
2021/07/10 01:18:30;;;;;;;3.30;2.28;;;21.80;97.20;;;;;;5073158;28;20016;-85
2021/07/10 01:20:56;;;;;;;2.92;2.53;;;21.80;97.20;;;;;;5072308;28;20020;-84
2021/07/10 01:23:23;;;;;;;3.88;2.60;;;21.80;97.10;;;;;;5071227;28;20070;-82
2021/07/10 01:25:49;;;;;;;3.30;2.67;;;21.80;97.50;;;;;;5072523;28;20017;-85
2021/07/10 01:28:15;;;;;;;4.63;2.25;;;21.80;97.10;;;;;;5072767;28;20021;-84
2021/07/10 01:30:41;;;;;;;3.05;2.35;;;21.80;97.10;;;;;;5072510;28;20060;-81
2021/07/10 01:33:08;;;;;;;5.90;2.80;;;21.80;97.10;;;;;;5072585;28;20028;-77
2021/07/10 01:35:35;;;;;;;3.65;2.72;;;21.80;97.10;;;;;;5071560;28;20020;-77
2021/07/10 01:38:02;;;;;;;4.22;2.47;;;21.80;97.10;;;;;;5071239;28;20397;-81
2021/07/10 01:40:28;;;;;;;3.63;2.53;;;21.80;97.10;;;;;;5072833;28;20021;-78
2021/07/10 01:42:55;;;;;;;3.55;2.65;;;21.80;97.40;;;;;;5072334;28;20111;-81
2021/07/10 01:45:21;;;;;;;2.90;2.40;;;21.80;97.00;;;;;;5072365;28;20016;-75
2021/07/10 01:47:51;;;;;;;3.08;2.60;;;21.80;97.00;;;;;;5070556;28;20439;-83
2021/07/10 01:50:17;;;;;;;4.00;3.10;;;21.80;97.00;;;;;;5072409;28;20483;-78
2021/07/10 01:52:43;;;;;;;3.63;2.67;;;21.80;97.00;;;;;;5071815;28;20033;-77
2021/07/10 01:55:10;;;;;;;3.55;2.80;;;21.80;97.00;;;;;;5072249;28;20025;-75
2021/07/10 01:57:39;;;;;;;3.20;2.65;;;21.70;97.00;;;;;;5071948;28;20020;-76
2021/07/10 02:00:18;;;;;;;3.63;2.83;;;21.80;97.00;;;;;;5072019;28;20032;-77
2021/07/10 02:02:44;;;;;;;3.25;2.55;;;21.80;96.90;;;;;;5070682;28;20024;-80
2021/07/10 02:05:11;;;;;;;4.53;2.70;;;21.70;96.90;;;;;;5071723;28;20020;-73
2021/07/10 02:07:38;;;;;;;2.58;2.20;;;21.70;97.20;;;;;;5071779;28;20028;-77
2021/07/10 02:10:09;;;;;;;3.05;2.42;;;21.70;96.90;;;;;;5072324;28;20025;-79
2021/07/10 02:12:35;;;;;;;3.65;2.65;;;21.70;96.90;;;;;;5070467;28;20040;-75
2021/07/10 02:15:01;;;;;;;3.88;2.53;;;21.70;96.90;;;;;;5071913;28;20027;-74
2021/07/10 02:17:26;;;;;;;3.47;2.75;;;21.70;96.80;;;;;;5071608;28;20115;-74
2021/07/10 02:19:52;;;;;;;3.05;2.67;;;21.70;96.80;;;;;;5071426;28;20520;-81
2021/07/10 02:22:18;;;;;;;3.83;2.60;;;21.70;96.80;;;;;;5071206;28;20028;-83
2021/07/10 02:24:43;;;;;;;3.70;2.60;;;21.70;96.80;;;;;;5071473;28;20024;-80
2021/07/10 02:27:09;;;;;;;3.45;2.90;;;21.70;96.80;;;;;;5071555;28;20028;-83
2021/07/10 02:29:35;;;;;;;3.55;2.38;;;21.70;96.70;;;;;;5071384;28;20029;-75
2021/07/10 02:32:00;;;;;;;3.53;2.63;;;21.70;96.70;;;;;;5071452;28;20510;-78
2021/07/10 02:34:26;;;;;;;4.50;2.90;;;21.70;96.70;;;;;;5071602;28;20037;-78
2021/07/10 02:36:53;;;;;;;4.28;2.78;;;21.70;96.70;;;;;;5071268;28;20358;-77
2021/07/10 02:39:18;;;;;;;3.42;2.63;;;21.70;96.60;;;;;;5071467;28;20025;-79
2021/07/10 02:41:44;;;;;;;5.00;3.08;;;21.70;96.60;;;;;;5069784;28;20024;-83
2021/07/10 02:44:10;;;;;;;3.35;2.33;;;21.70;96.60;;;;;;5070161;28;20032;-75
2021/07/10 02:46:35;;;;;;;5.13;2.63;;;21.70;96.60;;;;;;5070978;28;20025;-75
2021/07/10 02:49:01;;;;;;;3.70;2.78;;;21.70;96.60;;;;;;5071641;28;20028;-79
2021/07/10 02:51:28;;;;;;;3.10;2.78;;;21.60;96.50;;;;;;5069894;28;20063;-81
2021/07/10 02:53:54;;;;;;;4.47;2.70;;;21.70;96.50;;;;;;5069588;28;20469;-82
2021/07/10 02:56:21;;;;;;;3.88;2.65;;;21.70;96.50;;;;;;5071316;28;20036;-80
2021/07/10 02:58:48;;;;;;;3.97;2.90;;;21.70;96.50;;;;;;5070797;28;20021;-77
2021/07/10 03:01:13;;;;;;;3.58;2.50;;;21.60;96.50;;;;;;5070869;28;20415;-80
2021/07/10 03:03:39;;;;;;;4.80;2.72;;;21.70;96.50;;;;;;5070728;28;20024;-81
2021/07/10 03:06:05;;;;;;;5.47;3.05;;;21.60;96.40;;;;;;5071262;28;20039;-75
2021/07/10 03:08:30;;;;;;;3.85;2.80;;;21.60;96.40;;;;;;5071272;28;20527;-83
2021/07/10 03:10:56;;;;;;;4.00;3.03;;;21.60;96.40;;;;;;5070591;28;20449;-75
2021/07/10 03:13:22;;;;;;;3.22;2.55;;;21.60;96.40;;;;;;5070913;28;20405;-80
2021/07/10 03:15:48;;;;;;;3.38;2.35;;;21.60;96.40;;;;;;5070505;28;20028;-80
2021/07/10 03:18:13;;;;;;;4.07;3.17;;;21.60;96.30;;;;;;5070974;28;20020;-80
2021/07/10 03:20:39;;;;;;;3.80;2.65;;;21.60;96.30;;;;;;5069321;28;20028;-75
2021/07/10 03:23:05;;;;;;;4.35;2.65;;;21.60;96.30;;;;;;5071111;28;20504;-75
2021/07/10 03:25:31;;;;;;;3.83;2.90;;;21.60;96.30;;;;;;5069956;28;20028;-82
2021/07/10 03:27:57;;;;;;;3.80;2.88;;;21.60;96.30;;;;;;5070984;28;20049;-81
2021/07/10 03:30:24;;;;;;;3.55;2.90;;;21.60;96.20;;;;;;5070717;28;20016;-76
2021/07/10 03:32:50;;;;;;;4.70;3.45;;;21.60;96.20;;;;;;5071395;28;20067;-79
2021/07/10 03:35:18;;;;;;;4.03;3.17;;;21.60;96.20;;;;;;5073076;28;20070;-74
2021/07/10 03:37:47;;;;;;;4.88;3.05;;;21.60;96.20;;;;;;5074813;28;20505;-77
2021/07/10 03:40:16;;;;;;;4.07;3.40;;;21.60;96.20;;;;;;5074311;28;20108;-74
2021/07/10 03:42:42;;;;;;;4.72;3.58;;;21.60;96.10;;;;;;5074562;28;20095;-74
2021/07/10 03:45:10;;;;;;;3.38;2.58;;;21.60;96.10;;;;;;5074618;28;20116;-75
2021/07/10 03:47:36;;;;;;;4.18;2.70;;;21.60;96.10;;;;;;5073414;28;20100;-76
2021/07/10 03:50:06;;;;;;;3.90;2.80;;;21.50;96.00;;;;;;5074748;28;20071;-82
2021/07/10 03:52:32;;;;;;;4.22;3.35;;;21.60;96.00;;;;;;5074391;28;20035;-79
2021/07/10 03:54:59;;;;;;;5.03;3.08;;;21.50;96.00;;;;;;5074290;28;20024;-80
2021/07/10 03:57:25;;;;;;;4.43;2.90;;;21.50;95.90;;;;;;5074261;28;20177;-80
2021/07/10 03:59:50;;;;;;;3.70;2.80;;;21.60;96.00;;;;;;5074460;28;20033;-80
2021/07/10 04:02:16;;;;;;;3.88;2.88;;;21.50;95.90;;;;;;5074095;28;20024;-82
2021/07/10 04:04:41;;;;;;;3.80;3.17;;;21.50;95.90;;;;;;5074423;28;20469;-79
2021/07/10 04:07:08;;;;;;;3.75;2.97;;;21.50;95.90;;;;;;5074257;28;20033;-82
2021/07/10 04:09:34;;;;;;;6.15;3.60;;;21.50;95.80;;;;;;5074515;28;20107;-83
2021/07/10 04:11:59;;;;;;;4.43;3.08;;;21.50;95.80;;;;;;5074132;28;20508;-79
2021/07/10 04:14:26;;;;;;;4.22;3.22;;;21.50;95.80;;;;;;5072442;28;20040;-81
2021/07/10 04:16:52;;;;;;;3.55;3.05;;;21.50;95.80;;;;;;5074240;28;20369;-84
2021/07/10 04:19:17;;;;;;;4.22;3.00;;;21.50;95.80;;;;;;5072654;28;20032;-81
2021/07/10 04:21:43;;;;;;;4.22;3.28;;;21.50;95.80;;;;;;5072803;28;20429;-78
2021/07/10 04:24:09;;;;;;;4.03;3.20;;;21.50;95.70;;;;;;5073640;28;20028;-76
2021/07/10 04:26:34;;;;;;;4.25;3.17;;;21.50;95.70;;;;;;5073930;28;20048;-79
2021/07/10 04:29:00;;;;;;;4.85;2.47;;;21.50;95.70;;;;;;5072381;28;20047;-80
2021/07/10 04:31:25;;;;;;;4.80;3.08;;;21.50;95.70;;;;;;5073408;28;20064;-76
2021/07/10 04:33:51;;;;;;;4.20;3.20;;;21.50;95.70;;;;;;5072341;28;20025;-76
2021/07/10 04:36:17;;;;;;;5.07;3.47;;;21.50;95.70;;;;;;5073487;28;20032;-79
2021/07/10 04:38:42;;;;;;;4.28;3.13;;;21.50;95.70;;;;;;5073715;28;20016;-79
2021/07/10 04:41:08;;;;;;;3.75;2.95;;;21.50;95.70;;;;;;5073102;28;20025;-77
2021/07/10 04:43:35;;;;;;;3.58;2.70;;;21.50;95.70;;;;;;5073326;28;20040;-79
2021/07/10 04:46:01;;;;;;;3.78;2.80;;;21.50;95.60;;;;;;5072273;28;20025;-80
2021/07/10 04:48:27;;;;;;;4.00;3.03;;;21.50;95.60;;;;;;5073252;28;20021;-81
2021/07/10 04:50:53;;;;;;;4.18;3.10;;;21.50;95.60;;;;;;5073348;28;20024;-77
2021/07/10 04:53:19;;;;;;;3.95;2.88;;;21.50;95.60;;;;;;5073038;28;20610;-80
2021/07/10 04:55:45;;;;;;;3.67;3.08;;;21.50;95.60;;;;;;5073295;28;20036;-79
2021/07/10 04:58:11;;;;;;;3.42;2.88;;;21.40;95.50;;;;;;5072986;28;20413;-77
2021/07/10 05:00:37;;;;;;;4.28;3.08;;;21.40;95.50;;;;;;5073486;28;20025;-75
2021/07/10 05:03:03;;;;;;;4.43;3.17;;;21.40;95.50;;;;;;5072054;28;20020;-78
2021/07/10 05:05:28;;;;;;;4.75;3.60;;;21.40;95.50;;;;;;5072890;28;20435;-78
2021/07/10 05:07:54;;;;;;;3.55;3.10;;;21.40;95.50;;;;;;5073150;28;20093;-79
2021/07/10 05:10:21;;;;;;;4.40;3.20;;;21.40;95.50;;;;;;5071431;28;20056;-82
2021/07/10 05:12:47;;;;;;;3.08;2.70;;;21.40;95.40;;;;;;5072584;28;20044;-77
2021/07/10 05:15:13;;;;;;;3.88;3.13;;;21.40;95.40;;;;;;5072905;28;20031;-80
2021/07/10 05:17:39;;;;;;;5.45;3.10;;;21.40;95.40;;;;;;5072708;28;20488;-81
2021/07/10 05:20:05;;;;;;;4.55;3.42;;;21.40;95.40;;;;;;5073240;28;20078;-79
2021/07/10 05:22:31;;;;;;;5.25;3.60;;;21.40;95.40;;;;;;5070229;28;20024;-81
2021/07/10 05:24:57;;;;;;;4.80;3.38;;;21.40;95.40;;;;;;5072072;28;20880;-76
2021/07/10 05:27:22;;;;;;;4.05;3.20;;;21.40;95.40;;;;;;5072009;28;20114;-75
2021/07/10 05:29:48;;;;;;;4.07;3.25;;;21.40;95.40;;;;;;5072117;28;20423;-82
2021/07/10 05:32:14;;;;;;;3.20;2.80;;;21.40;95.40;;;;;;5071640;28;20040;-79
2021/07/10 05:34:40;;;;;;;3.47;3.00;;;21.40;95.40;;;;;;5072492;28;20101;-81
2021/07/10 05:37:06;;;;;;;4.90;3.22;;;21.40;95.30;;;;;;5071834;28;20052;-84
2021/07/10 05:39:32;;;;;;;5.40;3.63;;;21.40;95.30;;;;;;5071757;28;20016;-82
2021/07/10 05:41:58;;;;;;;5.65;3.30;;;21.40;95.30;;;;;;5072642;28;20032;-81
2021/07/10 05:44:25;;;;;;;5.00;3.63;;;21.40;95.30;;;;;;5071627;28;20099;-82
2021/07/10 05:46:51;;;;;;;3.80;3.00;;;21.40;95.30;;;;;;5072408;28;20024;-79
2021/07/10 05:49:17;;;;;;;3.95;3.10;;;21.40;95.30;;;;;;5071526;28;20544;-81
2021/07/10 05:51:43;;;;;;;3.97;3.20;;;21.40;95.30;;;;;;5071876;28;20408;-77
2021/07/10 05:54:09;;;;;;;5.22;3.75;;;21.40;95.30;;;;;;5070169;28;20032;-76
2021/07/10 05:56:35;;;;;;;3.80;3.00;;;21.40;95.30;;;;;;5071018;28;20024;-83
2021/07/10 05:59:00;;;;;;;4.47;3.33;;;21.40;95.30;;;;;;5072080;28;20031;-84
2021/07/10 06:01:26;;;;;;;7.07;4.05;;;21.40;95.60;;;;;;5071574;28;20028;-81
2021/07/10 06:03:51;;;;;;;4.07;3.13;;;21.40;95.20;;;;;;5072036;28;20358;-79
2021/07/10 06:06:17;;;;;;;4.53;3.50;;;21.40;95.20;;;;;;5071291;28;20036;-79
2021/07/10 06:08:43;;;;;;;6.13;2.92;;;21.40;95.30;;;;;;5071464;28;20449;-82
2021/07/10 06:11:09;;;;;;;3.28;2.97;;;21.40;95.30;;;;;;5071268;28;20048;-80
2021/07/10 06:13:35;;;;;;;5.00;3.42;;;21.30;95.20;;;;;;5072473;28;20017;-78
2021/07/10 06:16:00;;;;;;;4.07;3.47;;;21.40;95.30;;;;;;5070528;28;20370;-78
2021/07/10 06:18:26;;;;;;;8.48;4.43;;;21.40;95.30;;;;;;5071589;28;20016;-79
2021/07/10 06:20:52;;;;;;;4.65;3.30;;;21.40;95.30;;;;;;5069525;28;20056;-77
2021/07/10 06:23:18;;;;;;;4.53;3.47;;;21.40;95.30;;;;;;5070400;28;20017;-79
2021/07/10 06:25:44;;;;;;;6.60;4.00;;;21.40;95.40;;;;;;5071087;28;20024;-78
2021/07/10 06:28:10;;;;;;;5.40;3.67;;;21.40;95.50;;;;;;5071139;28;20024;-79
2021/07/10 06:30:36;;;;;;;7.07;4.40;;;21.40;95.50;;;;;;5071522;28;20480;-79
2021/07/10 06:33:03;;;;;;;9.98;4.13;;;21.40;95.50;;;;;;5070861;28;20123;-79
2021/07/10 06:35:29;;;;;;;7.47;4.28;;;21.40;95.50;;;;;;5070354;28;20029;-77
2021/07/10 06:37:54;;;;;;;5.25;3.97;;;21.40;95.60;;;;;;5070758;28;20036;-77
2021/07/10 06:40:20;;;;;;;7.57;3.95;;;21.40;95.60;;;;;;5069917;28;20385;-76
2021/07/10 06:42:47;;;;;;;5.32;3.95;;;21.40;95.60;;;;;;5071108;28;20067;-76
2021/07/10 06:45:16;;;;;;;4.75;3.88;;;21.40;95.60;;;;;;5071085;28;20021;-76
2021/07/10 06:47:42;;;;;;;7.05;3.55;;;21.40;95.60;;;;;;5069497;28;20039;-77
2021/07/10 06:50:11;;;;;;;4.88;3.90;;;21.40;95.60;;;;;;5071088;28;20638;-77
2021/07/10 06:52:37;;;;;;;7.95;3.78;;;21.40;95.60;;;;;;5070656;28;20067;-77
2021/07/10 06:55:05;;;;;;;6.25;4.32;;;21.40;95.60;;;;;;5070972;28;20028;-77
2021/07/10 06:57:31;;;;;;;6.97;3.80;;;21.40;95.60;;;;;;5069198;28;20485;-77
2021/07/10 06:59:56;;;;;;;5.55;4.10;;;21.40;95.60;;;;;;5069594;28;20035;-77
2021/07/10 07:02:22;;;;;;;6.15;3.97;;;21.40;95.60;;;;;;5069117;28;20024;-76
2021/07/10 07:04:48;;;;;;;8.18;3.95;;;21.40;95.60;;;;;;5069624;28;21404;-77
2021/07/10 07:07:13;;;;;;;5.82;3.88;;;21.50;95.60;;;;;;5065660;28;20024;-77
2021/07/10 07:09:39;;;;;;;6.25;4.07;;;21.50;95.60;;;;;;5069449;28;20017;-76
2021/07/10 07:12:05;;;;;;;6.93;4.47;;;21.50;95.60;;;;;;5069619;28;20056;-76
2021/07/10 07:14:31;;;;;;;7.45;5.30;;;21.50;95.60;;;;;;5068852;28;20035;-76
2021/07/10 07:16:58;;;;;;;13.45;11.85;;;21.50;95.60;;;;;;5069110;28;20029;-76
2021/07/10 07:19:26;;;;;;;10.75;6.55;;;21.50;95.70;;;;;;5069400;28;20028;-76
2021/07/10 07:21:52;;;;;;;12.65;7.57;;;21.50;95.70;;;;;;5068775;28;20024;-76
2021/07/10 07:24:17;;;;;;;13.80;7.50;;;21.50;95.80;;;;;;5069197;28;20021;-77
2021/07/10 07:26:43;;;;;;;11.18;7.95;;;21.50;95.80;;;;;;5070714;28;20511;-78
2021/07/10 07:29:09;;;;;;;11.25;8.07;;;21.50;95.90;;;;;;5070009;28;20048;-77
2021/07/10 07:31:34;;;;;;;11.95;7.53;;;21.50;96.00;;;;;;5070450;28;20078;-78
2021/07/10 07:34:00;;;;;;;15.05;7.90;;;21.60;96.00;;;;;;5069360;28;20024;-76
2021/07/10 07:36:26;;;;;;;11.60;7.80;;;21.60;96.00;;;;;;5076421;28;20074;-76
2021/07/10 07:38:51;;;;;;;13.77;8.30;;;21.60;96.00;;;;;;5070836;28;20063;-75
2021/07/10 07:41:18;;;;;;;15.40;7.80;;;21.60;96.00;;;;;;5070240;28;20020;-77
2021/07/10 07:43:44;;;;;;;14.05;7.72;;;21.60;96.10;;;;;;5083745;28;20074;-76
2021/07/10 07:46:12;;;;;;;11.48;7.60;;;21.60;96.10;;;;;;5069916;28;20052;-76
2021/07/10 07:48:37;;;;;;;14.75;7.45;;;21.60;96.10;;;;;;5069449;28;20112;-76
2021/07/10 07:51:03;;;;;;;12.35;7.15;;;21.60;96.10;;;;;;5070301;28;20702;-76
2021/07/10 07:53:29;;;;;;;14.65;8.40;;;21.60;96.10;;;;;;5070167;28;20401;-77
2021/07/10 07:55:55;;;;;;;14.00;7.60;;;21.60;96.30;;;;;;5072581;28;20023;-77
2021/07/10 07:58:21;;;;;;;13.60;8.00;;;21.60;96.30;;;;;;5070643;28;20373;-76
2021/07/10 08:00:47;;;;;;;10.55;6.97;;;21.70;96.30;;;;;;5070869;28;20070;-78
2021/07/10 08:03:13;;;;;;;10.82;6.88;;;21.70;96.30;;;;;;5069531;28;20073;-77
2021/07/10 08:05:38;;;;;;;15.25;8.13;;;21.70;96.30;;;;;;5070134;28;20101;-78
2021/07/10 08:08:05;;;;;;;12.40;6.57;;;21.70;96.30;;;;;;5070326;28;20103;-78
2021/07/10 08:10:30;;;;;;;17.90;9.07;;;21.70;96.30;;;;;;5068396;28;20024;-78
2021/07/10 08:12:56;;;;;;;21.48;8.63;;;21.70;96.30;;;;;;5070010;28;20047;-76
2021/07/10 08:15:23;;;;;;;13.77;8.10;;;21.70;96.30;;;;;;5070127;28;20048;-77
2021/07/10 08:17:51;;;;;;;13.32;7.75;;;21.70;96.30;;;;;;5068428;28;20024;-76
2021/07/10 08:20:17;;;;;;;15.48;8.82;;;21.70;96.30;;;;;;5072724;28;20016;-76
2021/07/10 08:22:44;;;;;;;9.68;7.57;;;21.70;96.30;;;;;;5072327;28;20082;-77
2021/07/10 08:25:11;;;;;;;15.50;7.80;;;21.70;96.30;;;;;;5072512;28;20111;-76
2021/07/10 08:27:37;;;;;;;15.85;7.18;;;21.70;96.30;;;;;;5073628;28;20459;-76
2021/07/10 08:30:05;;;;;;;17.92;7.82;;;21.70;96.30;;;;;;5073272;28;20021;-76
2021/07/10 08:32:31;;;;;;;14.27;7.38;;;21.70;96.20;;;;;;5072984;28;20492;-77
2021/07/10 08:34:56;;;;;;;11.70;7.15;;;21.70;96.20;;;;;;5072549;28;20025;-76
2021/07/10 08:37:22;;;;;;;15.30;7.70;;;21.80;96.30;;;;;;5072695;28;20392;-75
2021/07/10 08:39:48;;;;;;;19.92;8.90;;;21.80;96.30;;;;;;5073261;28;20366;-77
2021/07/10 08:42:13;;;;;;;13.88;6.95;;;21.80;96.50;;;;;;5072117;28;20432;-78
2021/07/10 08:44:41;;;;;;;13.23;7.18;;;21.80;96.50;;;;;;5073735;28;20058;-79
2021/07/10 08:47:13;;;;;;;13.18;7.35;;;21.80;96.80;;;;;;5073752;28;20028;-78
2021/07/10 08:49:40;;;;;;;11.82;7.20;;;21.80;97.30;;;;;;5073315;28;20528;-80
2021/07/10 08:52:06;;;;;;;18.48;8.82;;;21.80;97.00;;;;;;5078818;28;20032;-78
2021/07/10 08:54:33;;;;;;;11.98;7.32;;;21.80;96.90;;;;;;5072830;28;20500;-79
2021/07/10 08:56:59;;;;;;;14.55;6.97;;;21.80;96.90;;;;;;5073170;28;20024;-77
2021/07/10 08:59:25;;;;;;;17.17;7.35;;;21.80;97.00;;;;;;5074474;28;20139;-77
2021/07/10 09:01:54;;;;;;;12.93;7.65;;;21.80;96.90;;;;;;5074169;28;20495;-76
2021/07/10 09:04:24;;;;;;;9.73;6.57;;;21.80;96.80;;;;;;5072945;28;20094;-76
2021/07/10 09:06:50;;;;;;;12.43;7.15;;;21.80;96.80;;;;;;5071499;28;20021;-76
2021/07/10 09:09:17;;;;;;;14.27;7.55;;;21.90;96.90;;;;;;5069660;28;20032;-78
2021/07/10 09:11:59;;;;;;;10.80;6.93;;;21.90;96.90;;;;;;5071354;28;20519;-77
2021/07/10 09:14:30;;;;;;;16.85;7.28;;;21.90;96.80;;;;;;5068499;28;20032;-77
2021/07/10 09:17:12;;;;;;;13.85;6.93;;;21.90;96.90;;;;;;5069128;28;20181;-78
2021/07/10 09:19:38;;;;;;;14.88;6.63;;;21.90;96.90;;;;;;5069115;28;20043;-77
2021/07/10 09:22:04;;;;;;;12.38;7.13;;;21.90;96.90;;;;;;5071400;28;20032;-77
2021/07/10 09:24:35;;;;;;;9.18;7.00;;;21.90;97.00;;;;;;5070587;28;20388;-76
2021/07/10 09:27:06;;;;;;;17.35;8.23;;;21.90;97.10;;;;;;5071134;28;20017;-76
2021/07/10 09:29:58;;;;;;;19.27;7.30;;;21.90;97.30;;;;;;5070569;28;20186;-76
2021/07/10 09:32:24;;;;;;;27.98;8.75;;;21.90;97.40;;;;;;5070269;28;20041;-76
2021/07/10 09:34:53;;;;;;;26.85;10.43;;;22.00;97.60;;;;;;5072073;28;20051;-78
2021/07/10 09:37:23;;;;;;;15.98;7.90;;;22.00;97.80;;;;;;5070462;28;20103;-76
2021/07/10 09:40:00;;;;;;;24.40;9.20;;;22.00;97.90;;;;;;5071236;28;20021;-76
2021/07/10 09:42:32;;;;;;;18.83;8.00;;;22.00;98.30;;;;;;5072157;28;20103;-74
2021/07/10 09:44:58;;;;;;;27.27;8.75;;;22.00;98.50;;;;;;5071716;28;20032;-76
2021/07/10 09:47:33;;;;;;;21.38;9.00;;;22.00;98.90;;;;;;5071767;28;20031;-75
2021/07/10 09:50:00;;;;;;;20.65;9.63;;;22.10;99.10;;;;;;5072316;28;20111;-78
2021/07/10 09:52:30;;;;;;;23.95;9.20;;;22.10;99.30;;;;;;5071474;28;20492;-77
2021/07/10 09:55:01;;;;;;;28.08;9.45;;;22.10;99.60;;;;;;5072416;28;20059;-77
2021/07/10 09:57:30;;;;;;;24.40;8.07;;;22.10;99.60;;;;;;5071556;28;20024;-78
2021/07/10 10:00:00;;;;;;;24.88;8.68;;;22.10;99.90;;;;;;5071596;28;20074;-77
2021/07/10 10:02:29;;;;;;;17.15;8.57;;;22.20;99.90;;;;;;5071160;28;20028;-75
2021/07/10 10:05:10;;;;;;;21.90;8.77;;;22.10;99.80;;;;;;5071489;28;20029;-75
2021/07/10 10:07:47;;;;;;;24.55;7.97;;;22.20;99.90;;;;;;5071848;28;20162;-78
2021/07/10 10:10:23;;;;;;;17.10;7.60;;;22.20;99.90;;;;;;5071335;28;20033;-76
2021/07/10 10:13:13;;;;;;;16.77;7.57;;;22.20;99.90;;;;;;5069662;28;20484;-76
2021/07/10 10:15:52;;;;;;;14.15;6.55;;;22.20;99.90;;;;;;5064917;28;20037;-77
2021/07/10 10:18:23;;;;;;;14.35;6.30;;;22.20;99.80;;;;;;5051893;28;20029;-78
2021/07/10 10:20:49;;;;;;;25.13;7.15;;;22.20;99.90;;;;;;5070249;28;20033;-77
2021/07/10 10:23:16;;;;;;;21.70;6.70;;;22.20;99.70;;;;;;5067240;28;20070;-77
2021/07/10 10:25:43;;;;;;;12.90;6.13;;;22.20;99.90;;;;;;5070906;28;20036;-77
2021/07/10 10:28:19;;;;;;;14.45;5.68;;;22.20;99.90;;;;;;5071216;28;20485;-77
2021/07/10 10:30:56;;;;;;;12.65;5.72;;;22.20;99.90;;;;;;5071767;28;20447;-77
2021/07/10 10:33:23;;;;;;;11.23;5.32;;;22.20;99.80;;;;;;5070991;28;20058;-77
2021/07/10 10:35:51;;;;;;;16.10;5.93;;;22.20;99.80;;;;;;5071371;28;20024;-77
2021/07/10 10:38:17;;;;;;;9.35;6.07;;;22.20;99.90;;;;;;5071280;28;20098;-78
2021/07/10 10:40:44;;;;;;;9.10;5.60;;;22.10;99.90;;;;;;5071546;28;20538;-78
2021/07/10 10:43:14;;;;;;;12.50;6.13;;;22.10;99.90;;;;;;5070046;28;20025;-77
2021/07/10 10:45:41;;;;;;;9.73;5.82;;;22.10;99.90;;;;;;5071222;28;20535;-78
2021/07/10 10:48:07;;;;;;;10.00;4.90;;;22.10;99.90;;;;;;5071391;28;20047;-77
2021/07/10 10:50:39;;;;;;;11.75;5.85;;;22.10;99.90;;;;;;5070401;28;20028;-76
2021/07/10 10:53:07;;;;;;;10.45;5.47;;;22.10;99.90;;;;;;5071508;28;20063;-77
2021/07/10 10:55:33;;;;;;;11.73;5.07;;;22.20;99.90;;;;;;5071566;28;20104;-77
2021/07/10 10:58:00;;;;;;;11.70;5.47;;;22.10;99.90;;;;;;5071036;28;20104;-77
2021/07/10 11:00:38;;;;;;;11.65;5.38;;;22.20;99.90;;;;;;5070665;28;20081;-76
2021/07/10 11:03:07;;;;;;;11.18;5.18;;;22.10;99.90;;;;;;5069798;28;20079;-76
2021/07/10 11:05:33;;;;;;;14.52;6.07;;;22.10;99.90;;;;;;5071320;28;20028;-76
2021/07/10 11:08:18;;;;;;;11.73;5.22;;;22.10;99.90;;;;;;5071181;28;20043;-76
2021/07/10 11:10:46;;;;;;;8.98;5.15;;;22.10;99.90;;;;;;5070529;28;20029;-76
2021/07/10 11:13:30;;;;;;;15.73;5.00;;;22.20;99.90;;;;;;5070790;28;20041;-76
2021/07/10 11:16:20;;;;;;;14.95;4.35;;;22.10;99.90;;;;;;5068066;28;20029;-77
2021/07/10 11:18:56;;;;;;;9.55;3.92;;;22.10;99.90;;;;;;5071045;28;20037;-77
2021/07/10 11:21:34;;;;;;;10.10;3.78;;;22.10;99.90;;;;;;5067970;28;20016;-75
2021/07/10 11:26:56;;;;;;;9.32;4.03;;;22.10;99.90;;;;;;5071069;28;20032;-75
2021/07/10 11:29:30;;;;;;;12.15;4.35;;;22.10;99.90;;;;;;5069738;28;20027;-75
2021/07/10 11:32:11;;;;;;;8.43;4.30;;;22.10;99.90;;;;;;5070629;28;20530;-75
2021/07/10 11:34:57;;;;;;;19.67;5.72;;;22.10;99.90;;;;;;5071515;28;20884;-75
2021/07/10 11:37:31;;;;;;;12.30;5.10;;;22.10;99.90;;;;;;5070086;28;20029;-76
2021/07/10 11:40:03;;;;;;;13.63;5.15;;;22.10;99.90;;;;;;5071090;28;20021;-75
2021/07/10 11:42:31;;;;;;;17.95;5.18;;;22.10;99.90;;;;;;5070698;28;20037;-76
2021/07/10 11:45:05;;;;;;;18.23;5.50;;;22.10;99.90;;;;;;5070926;28;20021;-75
2021/07/10 11:47:37;;;;;;;20.52;5.90;;;22.10;99.90;;;;;;5071234;28;20392;-74
2021/07/10 11:50:17;;;;;;;13.90;4.70;;;22.10;99.90;;;;;;5071007;28;20400;-75
2021/07/10 11:52:58;;;;;;;12.23;4.97;;;22.10;99.90;;;;;;5070963;28;20082;-74
2021/07/10 11:55:26;;;;;;;13.63;4.90;;;22.00;99.90;;;;;;5072844;28;20035;-74
2021/07/10 11:57:52;;;;;;;18.65;6.35;;;22.10;99.90;;;;;;5074313;28;20021;-75
2021/07/10 12:00:18;;;;;;;10.02;4.40;;;22.10;99.90;;;;;;5074084;28;20066;-74
2021/07/10 12:02:44;;;;;;;13.60;3.60;;;22.10;99.90;;;;;;5074712;28;20027;-75
2021/07/10 12:05:11;;;;;;;9.00;3.40;;;22.10;99.90;;;;;;5074608;28;20032;-75
2021/07/10 12:07:42;;;;;;;8.65;3.55;;;22.10;99.90;;;;;;5084792;28;20016;-74
2021/07/10 12:10:12;;;;;;;8.38;4.25;;;22.10;99.90;;;;;;5094246;28;20077;-78
2021/07/10 12:12:47;;;;;;;9.75;3.25;;;22.00;99.90;;;;;;5086614;28;20090;-77
2021/07/10 12:15:22;;;;;;;9.88;3.85;;;22.00;99.90;;;;;;5080345;28;20103;-74
2021/07/10 12:17:51;;;;;;;10.95;3.53;;;22.00;99.90;;;;;;5082339;28;20032;-74
2021/07/10 12:20:20;;;;;;;10.15;3.20;;;22.00;99.90;;;;;;5088883;28;20059;-75
2021/07/10 12:22:54;;;;;;;10.10;3.50;;;22.10;99.90;;;;;;5094368;28;20028;-74
2021/07/10 12:25:23;;;;;;;11.35;4.28;;;22.10;99.90;;;;;;5079937;28;20039;-76
2021/07/10 12:27:57;;;;;;;14.35;3.92;;;22.00;99.90;;;;;;5074283;28;20078;-75
2021/07/10 12:30:44;;;;;;;13.85;3.88;;;22.00;99.90;;;;;;5074165;28;20020;-76
2021/07/10 12:33:34;;;;;;;7.13;4.10;;;22.00;99.90;;;;;;5074051;28;20064;-77
2021/07/10 12:35:59;;;;;;;8.45;4.18;;;22.10;99.90;;;;;;5073816;28;20080;-76
2021/07/10 12:38:25;;;;;;;7.15;3.83;;;22.10;99.90;;;;;;5071172;28;20052;-75
2021/07/10 12:40:51;;;;;;;10.38;3.42;;;22.10;99.90;;;;;;5072659;28;20094;-75
2021/07/10 12:43:26;;;;;;;7.93;3.50;;;22.10;99.90;;;;;;5070830;28;20050;-77
2021/07/10 12:45:59;;;;;;;8.18;3.03;;;22.10;99.90;;;;;;5070365;28;20502;-75
2021/07/10 12:48:25;;;;;;;9.80;3.60;;;22.10;99.90;;;;;;5072022;28;20020;-75